Time;durP1;ratioP1;P1;durP2;ratioP2;P2;SDS_P1;SDS_P2;PMS_P1;PMS_P2;Temp;Humidity;BMP_temperature;BMP_pressure;BME280_temperature;BME280_humidity;BME280_pressure;Samples;Min_cycle;Max_cycle;Signal;HPM_P1;HPM_P2
2023/09/05 00:01:56;;;;;;;5.15;3.45;;;;;;;20.43;100.00;-18576.41;5009537;28;20091;-74
2023/09/05 00:04:22;;;;;;;5.47;3.92;;;;;;;20.34;100.00;-18573.81;5027264;28;20090;-74
2023/09/05 00:06:48;;;;;;;8.02;4.10;;;;;;;20.38;100.00;-18575.03;5027975;28;20103;-75
2023/09/05 00:09:15;;;;;;;5.38;3.90;;;;;;;20.30;100.00;-18572.84;5024746;28;20083;-75
2023/09/05 00:11:40;;;;;;;6.75;3.53;;;;;;;20.25;100.00;-18571.63;5011482;28;20045;-74
2023/09/05 00:14:06;;;;;;;5.20;3.85;;;;;;;20.16;100.00;-18569.03;5022705;28;20037;-73
2023/09/05 00:16:31;;;;;;;5.47;3.85;;;;;;;20.09;100.00;-18567.28;5012674;28;20191;-75
2023/09/05 00:18:57;;;;;;;5.70;4.05;;;;;;;20.08;100.00;-18567.00;5026668;28;20128;-75
2023/09/05 00:21:22;;;;;;;5.95;3.75;;;;;;;20.02;100.00;-18565.50;5027857;28;20048;-75
2023/09/05 00:23:48;;;;;;;6.07;3.90;;;;;;;19.97;100.00;-18564.00;5028113;28;20033;-75
2023/09/05 00:26:14;;;;;;;5.85;3.80;;;;;;;19.99;100.00;-18564.69;5023803;28;20133;-76
2023/09/05 00:28:43;;;;;;;7.32;3.72;;;;;;;19.96;100.00;-18563.88;5026983;28;20041;-75
2023/09/05 00:31:11;;;;;;;5.55;4.03;;;;;;;19.96;100.00;-18563.72;5026554;28;20041;-75
2023/09/05 00:33:36;;;;;;;5.57;3.85;;;;;;;19.96;100.00;-18563.88;5026610;28;20042;-75
2023/09/05 00:36:03;;;;;;;5.38;3.80;;;;;;;19.93;100.00;-18563.06;5025834;28;20045;-75
2023/09/05 00:38:29;;;;;;;7.05;3.97;;;;;;;19.96;100.00;-18563.72;5007269;28;20442;-75
2023/09/05 00:40:55;;;;;;;6.60;3.70;;;;;;;19.92;100.00;-18562.78;5027494;28;20042;-76
2023/09/05 00:43:21;;;;;;;7.72;3.90;;;;;;;19.85;100.00;-18560.88;5023039;28;20046;-75
2023/09/05 00:45:56;;;;;;;5.60;3.92;;;;;;;19.82;100.00;-18560.06;5022581;28;20041;-76
2023/09/05 00:48:27;;;;;;;6.65;4.03;;;;;;;19.78;100.00;-18559.09;5021791;28;20056;-76
2023/09/05 00:50:56;;;;;;;4.40;3.10;;;;;;;19.74;100.00;-18558.00;5025731;28;20033;-77
2023/09/05 00:53:25;;;;;;;5.93;3.60;;;;;;;19.76;100.00;-18558.41;5026552;28;20123;-76
2023/09/05 00:55:52;;;;;;;5.15;3.67;;;;;;;19.65;100.00;-18555.41;5027019;28;20132;-76
2023/09/05 00:58:18;;;;;;;7.55;4.28;;;;;;;19.53;100.00;-18552.44;5024550;28;20765;-76
2023/09/05 01:00:43;;;;;;;6.10;4.15;;;;;;;19.68;100.00;-18556.25;5026966;28;20519;-76
2023/09/05 01:03:09;;;;;;;7.82;4.38;;;;;;;19.61;100.00;-18554.59;5021043;28;20045;-76
2023/09/05 01:05:36;;;;;;;5.43;3.75;;;;;;;19.56;100.00;-18553.25;5025581;28;20060;-76
2023/09/05 01:08:16;;;;;;;6.40;4.22;;;;;;;19.50;100.00;-18551.59;5020925;28;20030;-77
2023/09/05 01:10:56;;;;;;;5.20;3.80;;;;;;;19.49;100.00;-18551.19;5026354;28;20102;-77
2023/09/05 01:13:26;;;;;;;6.70;4.30;;;;;;;19.35;100.00;-18547.53;5025219;28;20041;-76
2023/09/05 01:15:53;;;;;;;8.48;5.05;;;;;;;19.45;100.00;-18550.09;5008520;28;20104;-76
2023/09/05 01:18:19;;;;;;;8.55;5.32;;;;;;;19.60;100.00;-18554.34;5027492;28;20045;-77
2023/09/05 01:21:22;;;;;;;6.82;4.95;;;;;;;19.60;100.00;-18554.34;5022680;28;20045;-77
2023/09/05 01:23:58;;;;;;;6.97;5.00;;;;;;;19.58;100.00;-18553.66;5011313;28;20045;-77
2023/09/05 01:26:24;;;;;;;9.35;5.53;;;;;;;19.63;100.00;-18554.88;5024589;28;20058;-77
2023/09/05 01:28:52;;;;;;;7.63;5.22;;;;;;;19.67;100.00;-18556.09;5027681;28;20744;-77
2023/09/05 01:31:17;;;;;;;7.20;5.00;;;;;;;19.59;100.00;-18553.91;5007477;28;20136;-77
2023/09/05 01:33:43;;;;;;;6.75;4.65;;;;;;;19.68;100.00;-18556.38;5021677;28;20836;-77
2023/09/05 01:36:08;;;;;;;9.68;5.85;;;;;;;19.67;100.00;-18555.97;5023814;28;20128;-76
2023/09/05 01:38:34;;;;;;;7.80;5.20;;;;;;;19.75;100.00;-18558.28;5026387;28;20053;-77
2023/09/05 01:40:59;;;;;;;8.27;5.30;;;;;;;19.54;100.00;-18552.69;5022861;28;20145;-76
2023/09/05 01:43:25;;;;;;;7.97;5.32;;;;;;;19.55;100.00;-18552.84;5027151;28;20064;-77
2023/09/05 01:45:50;;;;;;;8.43;5.65;;;;;;;19.57;100.00;-18553.50;5025988;28;20742;-77
2023/09/05 01:48:15;;;;;;;9.13;6.07;;;;;;;19.60;100.00;-18554.34;5008270;28;20721;-77
2023/09/05 01:50:41;;;;;;;7.70;5.13;;;;;;;19.56;100.00;-18553.25;5023637;28;20041;-76
2023/09/05 01:53:06;;;;;;;8.80;6.25;;;;;;;19.59;100.00;-18554.06;5024853;28;20037;-77
2023/09/05 01:55:32;;;;;;;8.05;5.28;;;;;;;19.64;100.00;-18555.16;5023736;28;20042;-76
2023/09/05 01:57:57;;;;;;;7.43;5.22;;;;;;;19.56;100.00;-18553.09;5024624;28;20563;-76
2023/09/05 02:00:22;;;;;;;9.15;5.43;;;;;;;19.52;100.00;-18552.03;5025547;28;20084;-76
2023/09/05 02:02:48;;;;;;;8.05;5.63;;;;;;;19.50;100.00;-18551.59;5017651;28;20048;-76
2023/09/05 02:05:13;;;;;;;8.50;5.80;;;;;;;19.43;100.00;-18549.69;5021683;28;20512;-75
2023/09/05 02:07:38;;;;;;;9.85;6.07;;;;;;;19.42;100.00;-18549.44;5021822;28;20097;-76
2023/09/05 02:10:06;;;;;;;8.60;6.22;;;;;;;19.43;100.00;-18549.69;5026049;28;20041;-76
2023/09/05 02:12:32;;;;;;;8.40;6.43;;;;;;;19.43;100.00;-18549.69;5022318;28;20517;-76
2023/09/05 02:15:00;;;;;;;8.40;6.47;;;;;;;19.49;100.00;-18551.34;5017120;28;20048;-76
2023/09/05 02:17:30;;;;;;;8.63;6.57;;;;;;;19.50;100.00;-18551.47;5021966;28;20061;-75
2023/09/05 02:19:56;;;;;;;12.15;6.72;;;;;;;19.35;100.00;-18547.53;5021225;28;20073;-75
2023/09/05 02:22:21;;;;;;;10.85;6.35;;;;;;;19.27;100.00;-18545.47;5024081;28;20449;-75
2023/09/05 02:24:47;;;;;;;9.60;6.35;;;;;;;19.22;100.00;-18543.97;5023663;28;20049;-76
2023/09/05 02:27:12;;;;;;;10.60;6.32;;;;;;;19.24;100.00;-18544.53;5006220;28;20382;-75
2023/09/05 02:29:37;;;;;;;11.75;7.40;;;;;;;19.21;100.00;-18543.72;5021098;28;20056;-75
2023/09/05 02:32:03;;;;;;;9.60;7.50;;;;;;;19.16;100.00;-18542.63;5024083;28;20447;-76
2023/09/05 02:34:29;;;;;;;9.65;6.57;;;;;;;19.14;100.00;-18542.06;5021662;28;20153;-76
2023/09/05 02:36:54;;;;;;;10.27;7.38;;;;;;;19.23;100.00;-18544.38;5002310;28;20468;-75
2023/09/05 02:39:20;;;;;;;10.18;7.32;;;;;;;19.06;100.00;-18539.91;5023598;28;20796;-75
2023/09/05 02:41:45;;;;;;;10.77;7.57;;;;;;;19.23;100.00;-18544.38;5018545;28;20437;-76
2023/09/05 02:44:11;;;;;;;11.30;7.75;;;;;;;19.24;100.00;-18544.53;5023025;28;20061;-76
2023/09/05 02:46:36;;;;;;;11.77;8.20;;;;;;;19.32;100.00;-18546.72;5025173;28;20041;-75
2023/09/05 02:49:02;;;;;;;10.38;7.50;;;;;;;19.09;100.00;-18540.72;5022565;28;20044;-76
2023/09/05 02:51:27;;;;;;;10.43;7.57;;;;;;;19.14;100.00;-18541.94;5024779;28;20045;-75
2023/09/05 02:53:56;;;;;;;10.95;8.07;;;;;;;19.10;100.00;-18540.97;5006803;28;20466;-76
2023/09/05 02:56:21;;;;;;;;;;;;;;;19.08;100.00;-18540.44;5003365;28;20115;-76
2023/09/05 02:58:48;;;;;;;13.40;8.10;;;;;;;18.97;100.00;-18537.44;5019594;28;20388;-75
2023/09/05 03:01:15;;;;;;;10.15;8.05;;;;;;;18.94;100.00;-18536.63;5024072;28;20052;-76
2023/09/05 03:03:40;;;;;;;13.48;8.15;;;;;;;18.89;100.00;-18535.25;5024043;28;20041;-76
2023/09/05 03:06:12;;;;;;;10.93;7.50;;;;;;;18.90;100.00;-18535.53;5016132;28;20111;-75
2023/09/05 03:08:38;;;;;;;10.63;8.05;;;;;;;18.78;100.00;-18532.41;5001584;28;20063;-75
2023/09/05 03:11:04;;;;;;;10.38;7.60;;;;;;;18.83;100.00;-18533.63;5002226;28;20493;-76
2023/09/05 03:13:30;;;;;;;11.63;8.50;;;;;;;18.81;100.00;-18533.06;5002845;28;20038;-75
2023/09/05 03:15:55;;;;;;;11.60;7.80;;;;;;;18.87;100.00;-18534.84;5005602;28;20049;-75
2023/09/05 03:18:20;;;;;;;12.57;8.32;;;;;;;18.87;100.00;-18534.72;5023183;28;20049;-75
2023/09/05 03:20:46;;;;;;;10.77;8.23;;;;;;;18.80;100.00;-18532.81;5027912;28;20528;-75
2023/09/05 03:23:12;;;;;;;11.45;8.32;;;;;;;18.77;100.00;-18532.00;5010684;28;20126;-75
2023/09/05 03:25:38;;;;;;;11.95;8.55;;;;;;;18.82;100.00;-18533.50;5022578;28;20050;-76
2023/09/05 03:28:04;;;;;;;11.90;8.60;;;;;;;18.83;100.00;-18533.63;5028368;28;20075;-75
2023/09/05 03:30:30;;;;;;;13.35;9.05;;;;;;;18.71;100.00;-18530.63;5027615;28;20045;-76
2023/09/05 03:32:55;;;;;;;13.02;8.77;;;;;;;18.68;100.00;-18529.81;5024902;28;20077;-76
2023/09/05 03:35:21;;;;;;;11.50;8.23;;;;;;;18.79;100.00;-18532.66;5026684;28;20049;-76
2023/09/05 03:37:46;;;;;;;12.90;8.80;;;;;;;18.82;100.00;-18533.34;5006844;28;20099;-75
2023/09/05 03:40:12;;;;;;;13.15;8.43;;;;;;;18.77;100.00;-18532.13;5023173;28;20435;-75
2023/09/05 03:42:38;;;;;;;11.93;8.50;;;;;;;18.89;100.00;-18535.25;5027918;28;20041;-76
2023/09/05 03:45:04;;;;;;;12.07;9.75;;;;;;;18.84;100.00;-18533.91;5023594;28;20056;-75
2023/09/05 03:47:29;;;;;;;13.18;9.18;;;;;;;18.80;100.00;-18532.81;5011339;28;20080;-76
2023/09/05 03:49:54;;;;;;;16.73;9.98;;;;;;;18.79;100.00;-18532.53;5006788;28;20077;-76
2023/09/05 03:52:19;;;;;;;13.55;9.52;;;;;;;18.60;100.00;-18527.63;5024996;28;20109;-76
2023/09/05 03:54:45;;;;;;;12.88;9.18;;;;;;;18.62;100.00;-18528.03;5026832;28;20041;-76
2023/09/05 03:57:10;;;;;;;13.52;8.70;;;;;;;18.80;100.00;-18532.81;5027314;28;20551;-76
2023/09/05 03:59:36;;;;;;;12.88;8.93;;;;;;;18.76;100.00;-18531.84;5027181;28;20134;-76
2023/09/05 04:02:01;;;;;;;12.52;9.10;;;;;;;18.72;100.00;-18530.88;5023968;28;20040;-77
2023/09/05 04:04:26;;;;;;;13.55;8.93;;;;;;;18.85;100.00;-18534.16;5019257;28;20069;-76
2023/09/05 04:06:52;;;;;;;12.30;8.45;;;;;;;18.74;100.00;-18531.31;5025161;28;20056;-77
2023/09/05 04:09:17;;;;;;;11.90;8.23;;;;;;;18.81;100.00;-18533.06;5021746;28;20042;-77
2023/09/05 04:11:42;;;;;;;10.43;8.20;;;;;;;18.70;100.00;-18530.34;5020481;28;20128;-76
2023/09/05 04:14:08;;;;;;;13.70;8.77;;;;;;;18.77;100.00;-18532.13;5004431;28;20397;-77
2023/09/05 04:16:33;;;;;;;11.27;8.13;;;;;;;18.72;100.00;-18530.88;5026945;28;20100;-77
2023/09/05 04:18:59;;;;;;;11.77;8.75;;;;;;;18.69;100.00;-18530.06;5024174;28;20049;-76
2023/09/05 04:21:24;;;;;;;11.95;8.60;;;;;;;18.80;100.00;-18532.81;5026776;28;20065;-77
2023/09/05 04:23:49;;;;;;;10.90;9.02;;;;;;;18.60;100.00;-18527.63;5028365;28;20108;-77
2023/09/05 04:26:15;;;;;;;13.45;9.02;;;;;;;18.62;100.00;-18528.16;5024082;28;20072;-77
2023/09/05 04:28:40;;;;;;;13.85;8.93;;;;;;;18.57;100.00;-18526.81;5010869;28;20064;-77
2023/09/05 04:31:05;;;;;;;13.60;9.10;;;;;;;18.59;100.00;-18527.34;5023175;28;20128;-77
2023/09/05 04:33:36;;;;;;;11.55;9.45;;;;;;;18.63;100.00;-18528.44;5020617;28;20073;-76
2023/09/05 04:36:02;;;;;;;13.90;8.95;;;;;;;18.60;100.00;-18527.47;5022913;28;20099;-77
2023/09/05 04:38:28;;;;;;;11.55;8.80;;;;;;;18.57;100.00;-18526.81;5026728;28;20053;-76
2023/09/05 04:40:53;;;;;;;13.75;9.45;;;;;;;18.58;100.00;-18527.06;5009645;28;20041;-76
2023/09/05 04:43:18;;;;;;;12.63;9.60;;;;;;;18.41;100.00;-18522.56;5022782;28;20123;-76
2023/09/05 04:45:54;;;;;;;12.85;8.85;;;;;;;18.51;100.00;-18525.16;5025467;28;20038;-76
2023/09/05 04:48:20;;;;;;;12.60;8.60;;;;;;;18.43;100.00;-18523.13;5007041;28;20124;-76
2023/09/05 04:50:45;;;;;;;12.25;9.10;;;;;;;18.47;100.00;-18524.06;5025401;28;20168;-76
2023/09/05 04:53:10;;;;;;;16.45;10.05;;;;;;;18.53;100.00;-18525.72;5020854;28;20034;-76
2023/09/05 04:55:36;;;;;;;11.95;8.63;;;;;;;18.42;100.00;-18522.84;5026295;28;20117;-75
2023/09/05 04:58:01;;;;;;;14.50;9.38;;;;;;;18.40;100.00;-18522.16;5006447;28;20041;-75
2023/09/05 05:00:26;;;;;;;11.88;9.05;;;;;;;18.30;100.00;-18519.56;5019069;28;20073;-76
2023/09/05 05:02:52;;;;;;;12.00;9.00;;;;;;;18.34;100.00;-18520.53;5023426;28;20065;-76
2023/09/05 05:05:17;;;;;;;12.52;9.02;;;;;;;18.42;100.00;-18522.84;5020045;28;20067;-75
2023/09/05 05:07:44;;;;;;;13.10;10.00;;;;;;;18.46;100.00;-18523.81;5025628;28;20088;-75
2023/09/05 05:10:10;;;;;;;11.95;8.75;;;;;;;18.46;100.00;-18523.94;5025798;28;20034;-75
2023/09/05 05:12:35;;;;;;;14.15;8.55;;;;;;;18.46;100.00;-18523.81;5026419;28;20042;-75
2023/09/05 05:15:00;;;;;;;14.73;9.77;;;;;;;18.42;100.00;-18522.72;5018568;28;20046;-76
2023/09/05 05:17:26;;;;;;;13.85;8.48;;;;;;;18.40;100.00;-18522.31;5023729;28;20047;-76
2023/09/05 05:19:51;;;;;;;13.38;8.82;;;;;;;18.36;100.00;-18521.06;5026644;28;20056;-78
2023/09/05 05:22:17;;;;;;;12.07;8.90;;;;;;;18.41;100.00;-18522.44;5025933;28;20049;-77
2023/09/05 05:24:42;;;;;;;10.68;8.13;;;;;;;18.29;100.00;-18519.31;5004032;28;20452;-77
2023/09/05 05:27:07;;;;;;;12.95;8.40;;;;;;;18.41;100.00;-18522.44;5027005;28;20128;-77
2023/09/05 05:29:33;;;;;;;14.27;8.82;;;;;;;18.43;100.00;-18523.13;5007209;28;20045;-76
2023/09/05 05:32:00;;;;;;;14.85;8.98;;;;;;;18.44;100.00;-18523.25;5024691;28;20670;-76
2023/09/05 05:34:26;;;;;;;12.98;9.50;;;;;;;18.45;100.00;-18523.53;5019996;28;20099;-77
2023/09/05 05:36:51;;;;;;;11.73;9.00;;;;;;;18.40;100.00;-18522.31;5018535;28;20041;-76
2023/09/05 05:39:21;;;;;;;14.82;8.68;;;;;;;18.36;100.00;-18521.06;5026495;28;20440;-75
2023/09/05 05:41:47;;;;;;;12.88;8.43;;;;;;;18.50;100.00;-18524.91;5021385;28;20049;-76
2023/09/05 05:44:12;;;;;;;11.50;8.82;;;;;;;18.58;100.00;-18527.06;5019233;28;20037;-75
2023/09/05 05:46:37;;;;;;;12.10;8.43;;;;;;;18.59;100.00;-18527.34;5018969;28;20616;-76
2023/09/05 05:49:03;;;;;;;12.35;8.95;;;;;;;18.77;100.00;-18532.13;5009117;28;20716;-75
2023/09/05 05:51:30;;;;;;;11.93;7.95;;;;;;;18.82;100.00;-18533.34;5020956;28;20517;-76
2023/09/05 05:53:55;;;;;;;11.90;8.13;;;;;;;18.80;100.00;-18532.94;5024047;28;20044;-75
2023/09/05 05:56:21;;;;;;;12.63;8.45;;;;;;;18.97;100.00;-18537.44;5023187;28;20069;-76
2023/09/05 05:58:48;;;;;;;9.35;7.30;;;;;;;19.12;100.00;-18541.53;5032726;28;20099;-77
2023/09/05 06:01:13;;;;;;;10.75;7.43;;;;;;;19.26;100.00;-18545.22;5029867;28;20033;-75
2023/09/05 06:03:39;;;;;;;11.27;8.02;;;;;;;19.45;100.00;-18550.25;5025472;28;20179;-76
2023/09/05 06:06:04;;;;;;;9.18;7.03;;;;;;;19.40;100.00;-18548.88;5028134;28;20041;-76
2023/09/05 06:08:30;;;;;;;10.60;7.53;;;;;;;19.54;100.00;-18552.69;5026467;28;20478;-78
2023/09/05 06:10:56;;;;;;;9.77;7.22;;;;;;;19.68;100.00;-18556.25;5025227;28;20070;-76
2023/09/05 06:13:21;;;;;;;9.05;6.40;;;;;;;19.75;100.00;-18558.16;5009798;28;20046;-78
2023/09/05 06:15:47;;;;;;;8.77;6.60;;;;;;;19.92;100.00;-18562.78;5027504;28;20036;-77
2023/09/05 06:18:12;;;;;;;9.18;5.82;;;;;;;20.01;100.00;-18565.09;5033226;28;20068;-77
2023/09/05 06:20:38;;;;;;;7.60;5.57;;;;;;;20.12;100.00;-18567.97;5031606;28;20107;-77
2023/09/05 06:23:04;;;;;;;7.25;5.80;;;;;;;20.35;100.00;-18574.09;5029097;28;20056;-77
2023/09/05 06:25:30;;;;;;;8.75;5.95;;;;;;;20.39;100.00;-18575.31;5011112;28;20466;-77
2023/09/05 06:27:56;;;;;;;9.85;5.10;;;;;;;20.50;100.00;-18578.28;5009222;28;20075;-76
2023/09/05 06:30:25;;;;;;;6.95;5.13;;;;;;;20.57;100.00;-18579.94;5030065;28;20061;-78
2023/09/05 06:32:50;;;;;;;7.38;5.05;;;;;;;20.67;100.00;-18582.66;5030818;28;20060;-77
2023/09/05 06:35:15;;;;;;;7.70;5.57;;;;;;;20.84;100.00;-18587.28;5027864;28;20057;-76
2023/09/05 06:37:41;;;;;;;6.13;4.05;;;;;;;20.90;100.00;-18588.91;5024578;28;20061;-77
2023/09/05 06:40:12;;;;;;;6.28;4.47;;;;;;;21.16;100.00;-18595.72;5025204;28;20069;-76
2023/09/05 06:42:39;;;;;;;7.10;4.38;;;;;;;21.21;100.00;-18597.06;5022794;28;20464;-76
2023/09/05 06:45:05;;;;;;;10.38;4.65;;;;;;;21.38;100.00;-18601.69;5021852;28;20069;-76
2023/09/05 06:47:31;;;;;;;5.50;3.92;;;;;;;21.49;100.00;-18604.41;5024348;28;20095;-76
2023/09/05 06:49:56;;;;;;;7.05;4.13;;;;;;;21.78;100.00;-18612.16;5020277;28;20050;-76
2023/09/05 06:52:21;;;;;;;5.10;3.60;;;;;;;21.84;100.00;-18613.94;5020055;28;20052;-76
2023/09/05 06:54:47;;;;;;;4.60;3.22;;;;;;;21.95;100.00;-18616.66;5007221;28;20041;-76
2023/09/05 06:57:12;;;;;;;4.75;2.83;;;;;;;22.12;100.00;-18621.25;5024692;28;20052;-76
2023/09/05 06:59:38;;;;;;;4.95;3.08;;;;;;;22.24;100.00;-18624.53;5025046;28;20560;-76
2023/09/05 07:02:03;;;;;;;5.03;3.10;;;;;;;22.33;100.00;-18626.84;5025399;28;20045;-76
2023/09/05 07:04:31;;;;;;;5.05;2.58;;;;;;;22.46;100.00;-18630.22;5024509;28;20119;-76
2023/09/05 07:06:58;;;;;;;4.57;2.90;;;;;;;22.64;100.00;-18634.97;4999455;28;20053;-77
2023/09/05 07:09:24;;;;;;;5.65;2.67;;;;;;;22.82;100.00;-18639.72;5023804;28;20100;-76
2023/09/05 07:11:49;;;;;;;3.90;2.58;;;;;;;22.84;100.00;-18640.41;5024764;28;20877;-76
2023/09/05 07:14:14;;;;;;;5.03;2.83;;;;;;;23.01;98.40;-18644.91;5020958;28;20043;-76
2023/09/05 07:16:40;;;;;;;3.63;2.33;;;;;;;23.09;97.88;-18646.94;5021565;28;20041;-76
2023/09/05 07:19:05;;;;;;;6.47;2.60;;;;;;;23.34;98.14;-18653.72;5020211;28;20038;-75
2023/09/05 07:21:30;;;;;;;4.38;2.30;;;;;;;23.47;95.15;-18657.09;5023996;28;20076;-75
2023/09/05 07:23:56;;;;;;;4.38;2.08;;;;;;;23.51;94.55;-18658.19;5020618;28;20050;-77
2023/09/05 07:26:21;;;;;;;4.75;2.20;;;;;;;23.58;92.69;-18660.09;5024986;28;20480;-77
2023/09/05 07:28:46;;;;;;;4.78;2.10;;;;;;;23.76;91.08;-18664.84;5028614;28;20149;-77
2023/09/05 07:31:14;;;;;;;3.65;1.80;;;;;;;23.82;88.76;-18666.47;5027057;28;20033;-77
2023/09/05 07:33:40;;;;;;;3.03;2.00;;;;;;;23.94;87.72;-18669.59;5029595;28;20068;-77
2023/09/05 07:36:06;;;;;;;4.25;2.03;;;;;;;24.12;85.93;-18674.31;5022456;28;20116;-76
2023/09/05 07:38:31;;;;;;;3.40;1.90;;;;;;;24.23;83.65;-18677.31;5025905;28;20286;-77
2023/09/05 07:41:04;;;;;;;4.75;2.03;;;;;;;24.22;83.08;-18676.91;5026057;28;20049;-76
2023/09/05 07:43:30;;;;;;;4.88;1.92;;;;;;;24.26;84.87;-18677.97;5018665;28;20060;-77
2023/09/05 07:45:56;;;;;;;3.85;1.95;;;;;;;24.44;84.08;-18682.72;5008929;28;20077;-77
2023/09/05 07:48:21;;;;;;;4.35;2.10;;;;;;;24.51;81.47;-18684.63;5026719;28;22547;-77
2023/09/05 07:50:46;;;;;;;3.58;2.22;;;;;;;24.47;81.33;-18683.69;5021288;28;20159;-76
2023/09/05 07:53:13;;;;;;;2.83;1.77;;;;;;;24.53;81.38;-18685.31;5022144;28;20037;-77
2023/09/05 07:55:39;;;;;;;3.42;1.80;;;;;;;24.59;80.81;-18686.78;5026347;28;20057;-77
2023/09/05 07:58:04;;;;;;;3.40;1.80;;;;;;;24.68;82.82;-18689.22;5026571;28;20130;-77
2023/09/05 08:00:30;;;;;;;3.83;1.85;;;;;;;24.74;81.09;-18690.72;5025996;28;20550;-77
2023/09/05 08:02:55;;;;;;;4.32;1.88;;;;;;;24.89;83.12;-18694.78;5023599;28;20434;-77
2023/09/05 08:05:21;;;;;;;3.25;1.63;;;;;;;24.94;81.40;-18696.13;5025861;28;20124;-77
2023/09/05 08:07:47;;;;;;;4.05;2.10;;;;;;;25.10;78.36;-18700.19;5003898;28;20037;-77
2023/09/05 08:10:12;;;;;;;2.85;1.70;;;;;;;25.17;77.81;-18702.09;5023441;28;20519;-77
2023/09/05 08:12:37;;;;;;;5.18;1.98;;;;;;;25.28;76.89;-18704.94;5029640;28;20076;-76
2023/09/05 08:15:05;;;;;;;3.00;1.88;;;;;;;25.34;78.34;-18706.56;5029078;28;20033;-77
2023/09/05 08:17:32;;;;;;;3.33;1.90;;;;;;;25.60;75.70;-18713.47;5026999;28;20045;-76
2023/09/05 08:19:58;;;;;;;3.10;1.70;;;;;;;25.64;73.14;-18714.69;5030599;28;20565;-77
2023/09/05 08:22:23;;;;;;;3.90;1.63;;;;;;;25.61;70.79;-18713.75;5027106;28;20041;-76
2023/09/05 08:24:50;;;;;;;3.88;1.65;;;;;;;25.79;72.66;-18718.47;5006642;28;20044;-77
2023/09/05 08:27:15;;;;;;;4.18;1.80;;;;;;;25.91;73.51;-18721.59;5025899;28;20053;-77
2023/09/05 08:29:41;;;;;;;4.40;1.85;;;;;;;26.00;69.32;-18724.03;5031405;28;20128;-76
2023/09/05 08:32:07;;;;;;;4.15;1.45;;;;;;;26.08;69.21;-18726.31;5027271;28;20041;-77
2023/09/05 08:34:33;;;;;;;2.88;1.80;;;;;;;26.35;68.97;-18733.34;5029686;28;20041;-76
2023/09/05 08:36:59;;;;;;;5.55;1.75;;;;;;;26.41;66.95;-18734.84;5028009;28;20076;-76
2023/09/05 08:39:25;;;;;;;3.13;1.65;;;;;;;26.41;69.01;-18734.84;5022433;28;20053;-77
2023/09/05 08:41:51;;;;;;;3.03;1.50;;;;;;;26.49;66.36;-18737.00;5027528;28;20045;-77
2023/09/05 08:44:16;;;;;;;2.00;1.50;;;;;;;26.77;68.07;-18744.56;5025617;28;20045;-76
2023/09/05 08:46:43;;;;;;;2.95;1.75;;;;;;;26.88;66.09;-18747.28;5024531;28;20037;-77
2023/09/05 08:49:08;;;;;;;3.83;1.30;;;;;;;26.91;64.71;-18748.22;5026546;28;20041;-77
2023/09/05 08:51:37;;;;;;;3.13;1.52;;;;;;;27.04;65.66;-18751.47;5027715;28;20095;-77
2023/09/05 08:54:05;;;;;;;3.60;1.35;;;;;;;27.29;63.71;-18758.09;5004432;28;20029;-76
2023/09/05 08:56:30;;;;;;;4.22;1.45;;;;;;;27.19;62.39;-18755.66;5026131;28;20030;-76
2023/09/05 08:58:57;;;;;;;4.07;1.60;;;;;;;27.19;63.93;-18755.50;5023509;28;20053;-77
2023/09/05 09:01:24;;;;;;;2.78;1.42;;;;;;;27.33;59.02;-18759.16;5027966;28;20645;-76
2023/09/05 09:03:51;;;;;;;2.95;1.65;;;;;;;27.37;60.54;-18760.38;5009710;28;20068;-77
2023/09/05 09:06:20;;;;;;;3.17;1.50;;;;;;;27.56;57.85;-18765.22;5026363;28;20517;-77
2023/09/05 09:08:45;;;;;;;2.40;1.30;;;;;;;27.76;57.03;-18770.50;5009359;28;20050;-77
2023/09/05 09:11:11;;;;;;;3.05;1.50;;;;;;;27.70;56.52;-18769.00;5006450;28;20046;-77
2023/09/05 09:13:38;;;;;;;4.93;1.58;;;;;;;27.97;56.88;-18776.16;5009336;28;20128;-77
2023/09/05 09:16:04;;;;;;;3.40;1.13;;;;;;;27.97;53.95;-18776.03;5024376;28;20068;-75
2023/09/05 09:18:33;;;;;;;2.38;1.17;;;;;;;27.98;54.75;-18776.31;5021227;28;20088;-76
2023/09/05 09:21:05;;;;;;;2.30;1.40;;;;;;;28.22;56.03;-18782.63;5022980;28;20525;-76
2023/09/05 09:23:33;;;;;;;2.97;1.60;;;;;;;28.23;52.83;-18783.03;5018246;28;20037;-77
2023/09/05 09:26:00;;;;;;;2.33;1.30;;;;;;;28.23;51.75;-18783.03;5026972;28;20756;-76
2023/09/05 09:28:30;;;;;;;4.82;1.42;;;;;;;28.39;51.85;-18787.22;5022259;28;20112;-77
2023/09/05 09:31:01;;;;;;;2.83;1.30;;;;;;;28.56;50.28;-18791.69;5022657;28;20099;-77
2023/09/05 09:33:27;;;;;;;2.80;1.50;;;;;;;28.74;50.00;-18796.41;5026108;28;20050;-77
2023/09/05 09:36:03;;;;;;;2.88;1.30;;;;;;;28.76;51.30;-18796.94;5026397;28;20041;-76
2023/09/05 09:38:29;;;;;;;2.25;1.10;;;;;;;28.70;48.53;-18795.44;5025836;28;20076;-77
2023/09/05 09:40:55;;;;;;;2.58;1.27;;;;;;;28.65;48.58;-18793.97;5009548;28;20116;-77
2023/09/05 09:43:21;;;;;;;3.85;1.55;;;;;;;28.89;49.32;-18800.44;5008138;28;20053;-76
2023/09/05 09:45:46;;;;;;;2.85;1.55;;;;;;;28.88;48.51;-18800.16;5022602;28;20525;-76
2023/09/05 09:48:15;;;;;;;2.13;1.20;;;;;;;28.99;48.95;-18803.00;4999915;28;20040;-76
2023/09/05 09:50:44;;;;;;;3.53;1.40;;;;;;;28.94;47.51;-18801.66;5004836;28;20041;-76
2023/09/05 09:53:12;;;;;;;3.15;1.58;;;;;;;28.83;49.44;-18798.81;5024482;28;20037;-76
2023/09/05 09:55:43;;;;;;;2.55;1.30;;;;;;;28.99;49.12;-18803.13;5026402;28;20053;-76
2023/09/05 09:58:18;;;;;;;4.25;1.50;;;;;;;29.17;50.13;-18807.84;5022219;28;20033;-77
2023/09/05 10:00:46;;;;;;;3.38;1.75;;;;;;;29.12;50.07;-18806.50;5020354;28;20038;-76
2023/09/05 10:03:18;;;;;;;;;;;;;;;29.31;52.16;-18811.34;5023033;28;20068;-76
2023/09/05 10:05:45;;;;;;;2.67;1.40;;;;;;;29.23;48.42;-18809.47;5017904;28;19913;-76
2023/09/05 10:08:11;;;;;;;3.03;1.42;;;;;;;29.41;49.26;-18814.19;5023953;28;20489;-77
2023/09/05 10:10:39;;;;;;;2.50;1.58;;;;;;;29.44;49.18;-18815.00;5008646;28;20045;-76
2023/09/05 10:13:07;;;;;;;4.47;1.25;;;;;;;29.38;47.48;-18813.25;5025494;28;20049;-76
2023/09/05 10:15:35;;;;;;;3.90;1.50;;;;;;;29.57;49.98;-18818.34;5023328;28;20599;-75
2023/09/05 10:18:01;;;;;;;2.28;1.48;;;;;;;29.52;50.71;-18816.88;5022864;28;20045;-76
2023/09/05 10:20:27;;;;;;;4.07;1.40;;;;;;;29.72;49.63;-18822.25;5018713;28;20717;-76
2023/09/05 10:22:53;;;;;;;4.18;1.65;;;;;;;29.70;48.19;-18821.59;5024399;28;20057;-76
2023/09/05 10:25:19;;;;;;;2.78;1.25;;;;;;;29.89;48.42;-18826.72;5021360;28;20078;-75
2023/09/05 10:27:45;;;;;;;2.15;1.30;;;;;;;29.96;48.55;-18828.47;5011902;28;20041;-77
2023/09/05 10:30:10;;;;;;;4.57;1.48;;;;;;;29.95;48.85;-18828.19;5018916;28;20041;-76
2023/09/05 10:32:40;;;;;;;2.97;1.48;;;;;;;29.99;47.92;-18829.41;5021486;28;20056;-76
2023/09/05 10:35:05;;;;;;;2.47;1.42;;;;;;;29.97;50.16;-18828.72;5001613;28;20046;-77
2023/09/05 10:37:34;;;;;;;4.75;1.50;;;;;;;30.06;47.83;-18831.28;5006746;28;20041;-76
2023/09/05 10:40:07;;;;;;;3.83;1.35;;;;;;;30.16;47.01;-18833.84;5025372;28;20057;-76
2023/09/05 10:42:34;;;;;;;4.22;1.58;;;;;;;30.26;48.73;-18836.53;5022767;28;20464;-77
2023/09/05 10:45:28;;;;;;;2.40;1.42;;;;;;;30.50;48.05;-18842.84;5017080;28;20045;-76
2023/09/05 10:47:59;;;;;;;2.55;1.35;;;;;;;30.56;47.75;-18844.47;4997703;28;20489;-77
2023/09/05 10:50:25;;;;;;;2.40;1.50;;;;;;;30.54;45.87;-18843.81;5022816;28;20412;-76
2023/09/05 10:53:11;;;;;;;4.05;1.45;;;;;;;30.65;46.06;-18846.63;5004162;28;20075;-77
2023/09/05 10:55:44;;;;;;;2.78;1.42;;;;;;;30.49;45.34;-18842.44;5002733;28;20061;-77
2023/09/05 10:58:47;;;;;;;2.75;1.30;;;;;;;30.70;45.96;-18847.97;5022111;28;20030;-77
2023/09/05 11:01:34;;;;;;;2.95;1.48;;;;;;;30.92;46.42;-18853.88;5018506;28;20526;-76
2023/09/05 11:04:10;;;;;;;2.78;1.50;;;;;;;31.12;47.66;-18859.00;5020222;28;20132;-77
2023/09/05 11:06:36;;;;;;;3.08;1.38;;;;;;;31.28;45.51;-18863.16;5024095;28;20079;-77
2023/09/05 11:09:06;;;;;;;2.65;1.40;;;;;;;31.34;45.89;-18864.91;5019545;28;20465;-77
2023/09/05 11:11:32;;;;;;;2.90;1.40;;;;;;;31.30;43.97;-18863.81;5005478;28;20398;-77
2023/09/05 11:13:58;;;;;;;5.95;1.65;;;;;;;31.31;44.04;-18863.97;5018999;28;20034;-77
2023/09/05 11:16:26;;;;;;;1.90;1.20;;;;;;;31.37;44.69;-18865.59;5016567;28;20052;-77